createdAt,value
2022-07-28T00:00:18.077Z,9.98
2022-07-28T00:02:46.080Z,10.02
2022-07-28T00:06:17.987Z,9.83
2022-07-28T00:08:46.105Z,9.91
2022-07-28T00:11:13.991Z,9.78
2022-07-28T00:14:47.068Z,9.87
2022-07-28T00:17:19.077Z,9.95
2022-07-28T00:19:46.961Z,9.86
2022-07-28T00:22:14.670Z,9.79
2022-07-28T00:24:42.465Z,9.91
2022-07-28T00:27:11.245Z,9.96
2022-07-28T00:29:49.784Z,9.94
2022-07-28T00:32:20.974Z,9.87
2022-07-28T00:34:49.008Z,9.97
2022-07-28T00:37:22.231Z,9.98
2022-07-28T00:39:50.399Z,9.89
2022-07-28T00:42:19.607Z,9.85
2022-07-28T00:44:47.522Z,9.90
2022-07-28T00:47:15.902Z,9.62
2022-07-28T00:49:46.620Z,9.70
2022-07-28T00:52:18.238Z,9.92
2022-07-28T00:54:46.050Z,10.02
2022-07-28T00:57:14.678Z,10.16
2022-07-28T00:59:42.560Z,9.61
2022-07-28T01:02:10.617Z,9.92
2022-07-28T01:04:39.152Z,9.95
2022-07-28T01:07:18.916Z,9.62
2022-07-28T01:09:52.992Z,9.61
2022-07-28T01:12:43.781Z,9.63
2022-07-28T01:15:21.190Z,9.59
2022-07-28T01:17:56.303Z,9.66
2022-07-28T01:20:28.649Z,9.70
2022-07-28T01:23:07.523Z,9.75
2022-07-28T01:25:48.032Z,9.78
2022-07-28T01:28:26.203Z,9.83
2022-07-28T01:30:58.250Z,9.84
2022-07-28T01:33:33.349Z,9.83
2022-07-28T01:36:04.456Z,9.83
2022-07-28T01:38:34.788Z,9.86
2022-07-28T01:41:04.261Z,9.87
2022-07-28T01:43:37.220Z,9.92
2022-07-28T01:46:08.272Z,9.94
2022-07-28T01:48:39.093Z,9.90
2022-07-28T01:51:08.993Z,9.95
2022-07-28T01:53:38.660Z,9.90
2022-07-28T01:56:08.887Z,10.03
2022-07-28T01:58:38.718Z,10.00
2022-07-28T02:01:09.222Z,10.06
2022-07-28T02:03:38.496Z,9.90
2022-07-28T02:06:07.530Z,9.91
2022-07-28T02:08:38.201Z,9.93
2022-07-28T02:11:23.712Z,9.90
2022-07-28T02:13:52.094Z,9.84
2022-07-28T02:16:23.882Z,9.87
2022-07-28T02:18:53.201Z,9.85
2022-07-28T02:21:22.959Z,9.81
2022-07-28T02:23:52.007Z,9.74
2022-07-28T02:26:23.275Z,9.74
2022-07-28T02:28:52.651Z,9.76
2022-07-28T02:31:27.895Z,9.46
2022-07-28T02:34:02.019Z,9.47
2022-07-28T02:36:34.186Z,9.48
2022-07-28T02:39:07.320Z,9.48
2022-07-28T02:41:39.387Z,9.34
2022-07-28T02:44:13.694Z,9.30
2022-07-28T02:46:45.813Z,9.35
2022-07-28T02:49:17.990Z,9.22
2022-07-28T02:51:46.668Z,9.22
2022-07-28T02:54:14.770Z,9.28
2022-07-28T02:56:53.294Z,8.92
2022-07-28T02:59:22.959Z,9.05
2022-07-28T03:01:55.602Z,9.09
2022-07-28T03:04:39.888Z,8.76
2022-07-28T03:07:08.434Z,8.67
2022-07-28T03:09:40.694Z,8.87
2022-07-28T03:12:09.197Z,8.88
2022-07-28T03:14:37.957Z,8.69
2022-07-28T03:17:09.030Z,8.81
2022-07-28T03:19:37.736Z,8.70
2022-07-28T03:22:05.534Z,8.61
2022-07-28T03:24:36.797Z,8.59
2022-07-28T03:27:11.122Z,8.67
2022-07-28T03:29:40.348Z,8.32
2022-07-28T03:32:10.689Z,8.81
2022-07-28T03:34:38.349Z,8.44
2022-07-28T03:37:10.433Z,8.59
2022-07-28T03:39:40.986Z,8.54
2022-07-28T03:42:09.741Z,8.48
2022-07-28T03:44:39.328Z,8.48
2022-07-28T03:47:07.697Z,8.42
2022-07-28T03:49:38.692Z,8.51
2022-07-28T03:52:06.822Z,8.63
2022-07-28T03:54:34.683Z,8.51
2022-07-28T03:57:02.680Z,8.41
2022-07-28T04:00:34.679Z,8.52
2022-07-28T04:03:03.175Z,8.62
2022-07-28T04:05:32.371Z,8.43
2022-07-28T04:08:00.998Z,8.56
2022-07-28T04:10:29.127Z,8.66
2022-07-28T04:12:59.173Z,8.67
2022-07-28T04:15:28.097Z,8.55
2022-07-28T04:17:57.367Z,8.51
2022-07-28T04:20:26.375Z,8.53
2022-07-28T04:22:55.981Z,8.72
2022-07-28T04:25:25.456Z,8.70
2022-07-28T04:27:54.786Z,8.70
2022-07-28T04:30:25.759Z,8.79
2022-07-28T04:32:54.739Z,8.78
2022-07-28T04:35:24.101Z,8.80
2022-07-28T04:37:55.191Z,8.88
2022-07-28T04:40:24.414Z,8.91
2022-07-28T04:42:52.437Z,8.98
2022-07-28T04:45:20.248Z,8.91
2022-07-28T04:47:48.005Z,8.95
2022-07-28T04:50:19.091Z,9.06
2022-07-28T04:52:49.231Z,9.10
2022-07-28T04:55:17.337Z,9.16
2022-07-28T04:57:46.957Z,9.29
2022-07-28T05:00:16.157Z,9.50
2022-07-28T05:02:45.656Z,9.56
2022-07-28T05:05:15.214Z,9.62
2022-07-28T05:07:44.320Z,9.78
2022-07-28T05:10:13.499Z,9.87
2022-07-28T05:12:41.362Z,9.90
2022-07-28T05:15:11.569Z,9.98
2022-07-28T05:17:39.698Z,10.15
2022-07-28T05:20:08.911Z,10.23
2022-07-28T05:22:44.269Z,10.35
2022-07-28T05:25:18.833Z,10.53
2022-07-28T05:27:47.079Z,10.66
2022-07-28T05:30:17.202Z,10.74
2022-07-28T05:32:47.176Z,10.91
2022-07-28T05:35:15.101Z,11.08
2022-07-28T05:37:43.972Z,11.18
2022-07-28T05:40:13.970Z,11.40
2022-07-28T05:42:43.081Z,11.63
2022-07-28T05:45:16.368Z,11.78
2022-07-28T05:47:49.383Z,12.02
2022-07-28T05:50:18.077Z,12.22
2022-07-28T05:52:47.508Z,12.51
2022-07-28T05:55:16.713Z,12.73
2022-07-28T05:57:44.629Z,12.93
2022-07-28T06:00:14.756Z,13.04
2022-07-28T06:02:45.531Z,13.21
2022-07-28T06:05:17.268Z,13.27
2022-07-28T06:07:45.854Z,13.36
2022-07-28T06:10:14.922Z,13.48
2022-07-28T06:12:47.433Z,13.36
2022-07-28T06:15:16.730Z,13.21
2022-07-28T06:17:44.874Z,13.16
2022-07-28T06:20:15.651Z,13.21
2022-07-28T06:22:44.221Z,13.22
2022-07-28T06:25:16.045Z,13.32
2022-07-28T06:27:47.232Z,13.41
2022-07-28T06:30:15.801Z,13.57
2022-07-28T06:32:43.496Z,13.79
2022-07-28T06:35:12.041Z,13.74
2022-07-28T06:37:41.156Z,13.94
2022-07-28T06:40:11.757Z,14.15
2022-07-28T06:42:39.476Z,14.04
2022-07-28T06:45:08.411Z,14.18
2022-07-28T06:47:36.531Z,14.25
2022-07-28T06:50:25.017Z,14.40
2022-07-28T06:52:56.056Z,14.57
2022-07-28T06:55:23.723Z,14.58
2022-07-28T06:57:51.650Z,14.77
2022-07-28T07:00:19.393Z,14.84
2022-07-28T07:02:47.230Z,14.79
2022-07-28T07:05:14.899Z,14.81
2022-07-28T07:07:43.601Z,14.93
2022-07-28T07:10:13.452Z,15.07
2022-07-28T07:12:41.105Z,15.14
2022-07-28T07:15:10.309Z,15.20
2022-07-28T07:17:38.346Z,15.61
2022-07-28T07:20:07.499Z,15.27
2022-07-28T07:22:35.641Z,15.32
2022-07-28T07:25:10.032Z,15.40
2022-07-28T07:27:39.591Z,15.73
2022-07-28T07:30:08.850Z,15.69
2022-07-28T07:32:36.678Z,15.75
2022-07-28T07:35:04.822Z,15.62
2022-07-28T07:37:32.604Z,15.93
2022-07-28T07:40:00.561Z,15.83
2022-07-28T07:42:28.222Z,16.04
2022-07-28T07:44:57.617Z,15.98
2022-07-28T07:47:25.281Z,16.03
2022-07-28T07:49:52.927Z,16.04
2022-07-28T07:52:20.587Z,16.05
2022-07-28T07:54:48.154Z,16.12
2022-07-28T07:57:15.831Z,16.39
2022-07-28T07:59:43.497Z,16.28
2022-07-28T08:02:12.766Z,16.43
2022-07-28T08:04:40.482Z,17.08
2022-07-28T08:07:08.409Z,16.81
2022-07-28T08:09:36.312Z,16.98
2022-07-28T08:12:04.184Z,17.03
2022-07-28T08:14:31.813Z,17.15
2022-07-28T08:16:59.568Z,17.21
2022-07-28T08:19:28.829Z,17.56
2022-07-28T08:21:56.532Z,17.62
2022-07-28T08:24:32.758Z,17.74
2022-07-28T08:27:01.680Z,17.49
2022-07-28T08:29:29.323Z,17.41
2022-07-28T08:31:57.079Z,17.63
2022-07-28T08:34:26.166Z,17.59
2022-07-28T08:37:02.133Z,17.79
2022-07-28T08:39:30.193Z,17.69
2022-07-28T08:42:01.428Z,17.88
2022-07-28T08:44:39.062Z,17.65
2022-07-28T08:47:10.765Z,17.84
2022-07-28T08:49:40.359Z,17.71
2022-07-28T08:52:12.425Z,18.07
2022-07-28T08:54:43.208Z,17.98
2022-07-28T08:57:11.752Z,17.88
2022-07-28T08:59:39.925Z,18.40
2022-07-28T09:02:11.298Z,18.33
2022-07-28T09:04:39.815Z,18.40
2022-07-28T09:07:07.606Z,18.65
2022-07-28T09:09:36.803Z,19.03
2022-07-28T09:12:05.729Z,18.76
2022-07-28T09:14:34.672Z,18.57
2022-07-28T09:17:03.418Z,18.87
2022-07-28T09:19:34.440Z,18.65
2022-07-28T09:22:05.235Z,18.73
2022-07-28T09:24:34.461Z,18.77
2022-07-28T09:27:06.884Z,18.92
2022-07-28T09:29:37.302Z,18.63
2022-07-28T09:32:06.111Z,19.12
2022-07-28T09:34:42.026Z,18.74
2022-07-28T09:37:21.068Z,18.58
2022-07-28T09:39:54.778Z,19.32
2022-07-28T09:42:24.316Z,19.22
2022-07-28T09:45:21.752Z,19.62
2022-07-28T09:48:09.714Z,19.58
2022-07-28T09:50:38.476Z,19.30
2022-07-28T09:53:22.982Z,18.98
2022-07-28T09:55:59.650Z,19.44
2022-07-28T09:58:30.519Z,19.35
2022-07-28T10:01:06.028Z,19.42
2022-07-28T10:03:36.404Z,19.91
2022-07-28T10:06:08.624Z,20.18
2022-07-28T10:08:44.090Z,20.45
2022-07-28T10:11:13.023Z,20.40
2022-07-28T10:13:58.871Z,20.81
2022-07-28T10:16:28.212Z,20.60
2022-07-28T10:18:57.598Z,20.53
2022-07-28T10:21:25.773Z,20.43
2022-07-28T10:23:55.085Z,20.55
2022-07-28T10:26:27.419Z,20.49
2022-07-28T10:28:56.144Z,21.11
2022-07-28T10:31:30.871Z,21.06
2022-07-28T10:34:00.818Z,20.41
2022-07-28T10:36:29.387Z,20.79
2022-07-28T10:39:04.118Z,20.88
2022-07-28T10:41:40.576Z,21.07
2022-07-28T10:44:14.262Z,21.19
2022-07-28T10:46:45.587Z,21.66
2022-07-28T10:49:14.805Z,21.17
2022-07-28T10:52:01.244Z,20.73
2022-07-28T10:54:33.197Z,20.46
2022-07-28T10:57:05.178Z,20.56
2022-07-28T10:59:58.579Z,20.99
2022-07-28T11:02:52.506Z,21.03
2022-07-28T11:05:32.522Z,21.13
2022-07-28T11:08:02.615Z,20.98
2022-07-28T11:13:00.742Z,21.02
2022-07-28T11:15:38.053Z,21.13
2022-07-28T11:18:09.395Z,20.72
2022-07-28T11:21:11.234Z,21.21
2022-07-28T11:23:48.195Z,20.88
2022-07-28T11:26:41.961Z,21.48
2022-07-28T11:29:16.874Z,21.24
2022-07-28T11:31:58.093Z,21.43
2022-07-28T11:34:27.509Z,21.88
2022-07-28T11:37:03.370Z,21.85
2022-07-28T11:39:43.407Z,22.27
2022-07-28T11:42:28.483Z,22.30
2022-07-28T11:44:57.326Z,22.38
2022-07-28T11:47:28.524Z,22.51
2022-07-28T11:50:14.375Z,22.42
2022-07-28T11:52:53.831Z,22.50
2022-07-28T11:55:49.237Z,21.97
2022-07-28T11:58:25.477Z,22.28
2022-07-28T12:01:17.081Z,22.58
2022-07-28T12:03:50.440Z,23.01
2022-07-28T12:06:28.637Z,23.44
2022-07-28T12:08:59.401Z,22.88
2022-07-28T12:11:28.811Z,23.09
2022-07-28T12:14:00.044Z,22.77
2022-07-28T12:16:28.152Z,23.09
2022-07-28T12:18:56.463Z,23.50
2022-07-28T12:21:37.782Z,23.70
2022-07-28T12:24:19.441Z,23.59
2022-07-28T12:26:50.213Z,23.96
2022-07-28T12:29:20.788Z,23.84
2022-07-28T12:31:56.550Z,23.84
2022-07-28T12:34:28.657Z,24.52
2022-07-28T12:37:02.053Z,23.96
2022-07-28T12:39:30.923Z,23.96
2022-07-28T12:42:04.533Z,24.50
2022-07-28T12:44:37.293Z,25.60
2022-07-28T12:47:07.692Z,25.08
2022-07-28T12:49:36.272Z,25.73
2022-07-28T12:52:21.428Z,25.98
2022-07-28T12:54:54.828Z,25.67
2022-07-28T12:57:48.322Z,26.66
2022-07-28T13:00:19.630Z,27.27
2022-07-28T13:02:48.876Z,26.65
2022-07-28T13:05:30.702Z,27.48
2022-07-28T13:08:05.810Z,29.42
2022-07-28T13:10:33.868Z,29.58
2022-07-28T13:13:04.155Z,28.83
2022-07-28T13:15:32.646Z,28.99
2022-07-28T13:18:00.859Z,29.44
2022-07-28T13:20:28.628Z,29.50
2022-07-28T13:22:57.548Z,29.83
2022-07-28T13:25:27.789Z,28.90
2022-07-28T13:27:55.999Z,28.86
2022-07-28T13:30:24.031Z,30.05
2022-07-28T13:32:51.831Z,29.77
2022-07-28T13:35:21.028Z,30.17
2022-07-28T13:37:49.135Z,29.17
2022-07-28T13:40:17.331Z,28.73
2022-07-28T13:42:52.474Z,29.01
2022-07-28T13:45:22.097Z,27.61
2022-07-28T13:47:53.512Z,27.71
2022-07-28T13:50:22.451Z,27.51
2022-07-28T13:52:53.951Z,27.73
2022-07-28T13:55:22.892Z,27.87
2022-07-28T13:57:56.541Z,28.81
2022-07-28T14:00:24.911Z,29.10
2022-07-28T14:02:52.904Z,29.43
2022-07-28T14:05:21.143Z,28.75
2022-07-28T14:07:49.828Z,29.46
2022-07-28T14:10:17.748Z,29.55
2022-07-28T14:12:46.247Z,28.54
2022-07-28T14:15:16.359Z,28.19
2022-07-28T14:17:46.199Z,27.34
2022-07-28T14:20:15.974Z,27.68
2022-07-28T14:22:44.637Z,29.48
2022-07-28T14:25:20.952Z,29.62
2022-07-28T14:27:49.563Z,28.14
2022-07-28T14:30:19.319Z,28.30
2022-07-28T14:32:47.289Z,29.41
2022-07-28T14:35:15.681Z,29.13
2022-07-28T14:40:32.455Z,28.77
2022-07-28T14:43:00.686Z,28.28
2022-07-28T14:45:30.958Z,28.34
2022-07-28T14:47:59.130Z,29.14
2022-07-28T14:50:28.080Z,29.39
2022-07-28T14:52:57.242Z,28.99
2022-07-28T14:55:25.691Z,29.82
2022-07-28T14:57:55.084Z,30.71
2022-07-28T15:00:25.191Z,30.87
2022-07-28T15:02:55.172Z,31.36
2022-07-28T15:05:23.674Z,30.41
2022-07-28T15:07:52.271Z,30.32
2022-07-28T15:10:21.630Z,30.42
2022-07-28T15:12:50.436Z,30.36
2022-07-28T15:15:18.332Z,32.06
2022-07-28T15:17:46.102Z,30.79
2022-07-28T15:20:15.708Z,32.05
2022-07-28T15:22:43.665Z,31.42
2022-07-28T15:25:11.350Z,31.24
2022-07-28T15:27:43.004Z,30.57
2022-07-28T15:30:14.131Z,29.62
2022-07-28T15:32:57.138Z,29.28
2022-07-28T15:36:26.846Z,28.94
2022-07-28T15:38:59.511Z,28.87
2022-07-28T15:41:28.000Z,28.91
2022-07-28T15:43:56.226Z,29.84
2022-07-28T15:46:24.108Z,30.27
2022-07-28T15:48:52.177Z,31.02
2022-07-28T15:51:22.694Z,30.20
2022-07-28T15:54:00.558Z,27.85
2022-07-28T15:56:29.394Z,27.67
2022-07-28T15:58:57.883Z,26.87
2022-07-28T16:01:27.238Z,27.24
2022-07-28T16:03:55.411Z,26.74
2022-07-28T16:06:23.313Z,26.29
2022-07-28T16:08:51.120Z,25.21
2022-07-28T16:11:23.373Z,25.24
2022-07-28T16:13:51.298Z,25.88
2022-07-28T16:16:19.110Z,25.76
2022-07-28T16:18:47.675Z,26.59
2022-07-28T16:22:25.784Z,25.94
2022-07-28T16:24:53.999Z,26.05
2022-07-28T16:27:23.550Z,25.66
2022-07-28T16:29:51.398Z,25.45
2022-07-28T16:32:19.912Z,25.90
2022-07-28T16:34:48.256Z,25.75
2022-07-28T16:37:19.312Z,25.74
2022-07-28T16:39:51.682Z,26.50
2022-07-28T16:42:19.371Z,27.89
2022-07-28T16:44:48.589Z,29.57
2022-07-28T16:47:16.808Z,28.51
2022-07-28T16:49:46.367Z,28.60
2022-07-28T16:52:15.203Z,29.43
2022-07-28T16:54:43.185Z,28.76
2022-07-28T16:57:11.468Z,28.55
2022-07-28T16:59:48.550Z,28.45
2022-07-28T17:02:20.177Z,28.02
2022-07-28T17:04:49.055Z,28.40
2022-07-28T17:07:17.225Z,27.51
2022-07-28T17:09:45.311Z,26.62
2022-07-28T17:12:13.188Z,26.04
2022-07-28T17:14:40.863Z,25.76
2022-07-28T17:17:09.286Z,26.25
2022-07-28T17:19:46.661Z,26.18
2022-07-28T17:22:15.852Z,26.03
2022-07-28T17:24:43.849Z,25.32
2022-07-28T17:30:01.861Z,24.09
2022-07-28T17:32:29.696Z,23.93
2022-07-28T17:35:02.807Z,24.03
2022-07-28T17:37:31.611Z,23.39
2022-07-28T17:40:00.954Z,23.03
2022-07-28T17:42:34.387Z,22.87
2022-07-28T17:45:02.255Z,22.70
2022-07-28T17:47:35.932Z,22.50
2022-07-28T17:50:07.203Z,22.35
2022-07-28T17:52:35.139Z,22.13
2022-07-28T17:55:20.261Z,22.05
2022-07-28T17:57:52.989Z,21.88
2022-07-28T18:00:21.745Z,21.51
2022-07-28T18:02:50.626Z,21.51
2022-07-28T18:05:21.139Z,21.46
2022-07-28T18:07:51.077Z,21.40
2022-07-28T18:10:24.634Z,21.34
2022-07-28T18:12:54.838Z,21.08
2022-07-28T18:15:24.543Z,21.05
2022-07-28T18:17:55.436Z,21.08
2022-07-28T18:20:29.077Z,20.99
2022-07-28T18:22:57.911Z,20.81
2022-07-28T18:25:28.897Z,20.81
2022-07-28T18:27:58.416Z,20.77
2022-07-28T18:30:27.638Z,20.59
2022-07-28T18:32:55.790Z,20.49
2022-07-28T18:35:25.644Z,20.44
2022-07-28T18:37:53.434Z,20.35
2022-07-28T18:40:23.333Z,20.26
2022-07-28T18:42:52.831Z,20.26
2022-07-28T18:45:20.963Z,20.16
2022-07-28T18:47:48.811Z,20.07
2022-07-28T18:50:30.571Z,19.84
2022-07-28T18:53:01.056Z,19.81
2022-07-28T18:55:29.668Z,19.67
2022-07-28T18:57:57.725Z,19.60
2022-07-28T19:00:25.689Z,19.45
2022-07-28T19:02:53.540Z,19.51
2022-07-28T19:05:21.318Z,19.27
2022-07-28T19:07:50.073Z,19.15
2022-07-28T19:10:20.291Z,19.06
2022-07-28T19:12:51.071Z,19.07
2022-07-28T19:15:19.033Z,18.94
2022-07-28T19:17:46.895Z,18.80
2022-07-28T19:20:34.529Z,18.48
2022-07-28T19:23:05.298Z,18.44
2022-07-28T19:25:36.014Z,18.21
2022-07-28T19:28:04.323Z,18.08
2022-07-28T19:30:33.099Z,18.03
2022-07-28T19:33:01.386Z,18.09
2022-07-28T19:35:29.087Z,17.95
2022-07-28T19:38:00.196Z,17.84
2022-07-28T19:40:29.618Z,17.88
2022-07-28T19:42:58.741Z,17.89
2022-07-28T19:45:26.829Z,17.72
2022-07-28T19:47:55.036Z,17.81
2022-07-28T19:50:23.997Z,17.72
2022-07-28T19:52:52.700Z,17.55
2022-07-28T19:55:21.799Z,17.37
2022-07-28T19:57:49.657Z,17.26
2022-07-28T20:00:19.294Z,17.06
2022-07-28T20:02:48.013Z,17.13
2022-07-28T20:05:15.911Z,17.05
2022-07-28T20:07:43.623Z,16.98
2022-07-28T20:10:11.751Z,16.83
2022-07-28T20:12:39.672Z,16.92
2022-07-28T20:15:09.261Z,16.87
2022-07-28T20:17:39.870Z,17.11
2022-07-28T20:20:09.376Z,16.99
2022-07-28T20:22:37.378Z,16.95
2022-07-28T20:25:09.278Z,17.03
2022-07-28T20:27:40.452Z,16.81
2022-07-28T20:30:09.889Z,17.06
2022-07-28T20:32:42.134Z,16.86
2022-07-28T20:35:11.093Z,16.86
2022-07-28T20:37:39.459Z,16.72
2022-07-28T20:40:08.500Z,16.59
2022-07-28T20:42:37.963Z,16.64
2022-07-28T20:45:06.514Z,16.70
2022-07-28T20:47:34.675Z,16.76
2022-07-28T20:50:06.908Z,16.72
2022-07-28T20:52:35.038Z,16.63
2022-07-28T20:55:04.557Z,16.63
2022-07-28T20:57:32.345Z,16.90
2022-07-28T21:00:00.228Z,16.99
2022-07-28T21:02:28.411Z,16.87
2022-07-28T21:04:56.212Z,16.89
2022-07-28T21:08:04.577Z,16.72
2022-07-28T21:10:14.441Z,16.93
2022-07-28T21:12:43.643Z,16.83
2022-07-28T21:15:12.776Z,16.76
2022-07-28T21:17:40.405Z,16.84
2022-07-28T21:20:08.975Z,16.51
2022-07-28T21:22:41.731Z,16.06
2022-07-28T21:25:10.440Z,15.88
2022-07-28T21:27:52.143Z,15.96
2022-07-28T21:30:27.647Z,16.06
2022-07-28T21:32:56.575Z,16.14
2022-07-28T21:35:26.469Z,16.10
2022-07-28T21:37:56.702Z,15.82
2022-07-28T21:40:24.511Z,16.04
2022-07-28T21:42:52.774Z,15.58
2022-07-28T21:45:21.262Z,15.55
2022-07-28T21:47:49.683Z,15.63
2022-07-28T21:50:18.514Z,15.51
2022-07-28T21:52:46.160Z,15.77
2022-07-28T21:55:15.537Z,15.57
2022-07-28T21:57:43.339Z,15.51
2022-07-28T22:00:12.898Z,15.86
2022-07-28T22:02:41.100Z,15.60
2022-07-28T22:05:10.695Z,15.97
2022-07-28T22:07:38.602Z,16.08
2022-07-28T22:10:08.193Z,15.91
2022-07-28T22:12:37.211Z,15.95
2022-07-28T22:15:05.333Z,16.00
2022-07-28T22:17:34.022Z,15.94
2022-07-28T22:20:02.593Z,15.81
2022-07-28T22:22:30.278Z,15.70
2022-07-28T22:24:58.629Z,15.69
2022-07-28T22:27:27.173Z,15.72
2022-07-28T22:29:58.230Z,15.77
2022-07-28T22:32:29.003Z,15.68
2022-07-28T22:34:58.472Z,15.94
2022-07-28T22:37:27.322Z,15.81
2022-07-28T22:39:55.113Z,15.92
2022-07-28T22:42:23.180Z,15.85
2022-07-28T22:44:51.268Z,15.88
2022-07-28T22:47:21.048Z,15.88
2022-07-28T22:49:49.278Z,15.85
2022-07-28T22:52:18.743Z,15.86
2022-07-28T22:54:46.773Z,15.98
2022-07-28T22:57:14.956Z,16.00
2022-07-28T22:59:46.833Z,16.09
2022-07-28T23:02:20.658Z,16.07
2022-07-28T23:04:51.911Z,16.14
2022-07-28T23:07:19.906Z,16.08
2022-07-28T23:10:08.874Z,16.17
2022-07-28T23:12:37.177Z,16.10
2022-07-28T23:15:06.458Z,16.14
2022-07-28T23:17:36.319Z,16.21
2022-07-28T23:20:07.002Z,16.15
2022-07-28T23:22:34.802Z,16.17
2022-07-28T23:25:03.737Z,16.19
2022-07-28T23:27:31.589Z,16.16
2022-07-28T23:30:00.142Z,16.14
2022-07-28T23:32:28.137Z,16.18
2022-07-28T23:34:57.324Z,16.12
2022-07-28T23:37:25.207Z,16.16
2022-07-28T23:39:53.621Z,16.09
2022-07-28T23:42:22.046Z,16.09
2022-07-28T23:44:50.063Z,16.09
2022-07-28T23:47:18.057Z,16.04
2022-07-28T23:49:46.001Z,16.07
2022-07-28T23:52:15.300Z,16.03
2022-07-28T23:54:43.176Z,15.93
2022-07-28T23:57:11.471Z,15.86
2022-07-28T23:59:39.358Z,15.80
